Time;durP1;ratioP1;P1;durP2;ratioP2;P2;SDS_P1;SDS_P2;PMS_P1;PMS_P2;Temp;Humidity;BMP_temperature;BMP_pressure;BME280_temperature;BME280_humidity;BME280_pressure;Samples;Min_cycle;Max_cycle;Signal;HPM_P1;HPM_P2
2023/08/09 00:02:02;;;;;;;4.18;2.72;;;;;;;;;;4933258;29;20056;-91
2023/08/09 00:04:30;;;;;;;5.13;2.60;;;;;;;;;;4922193;29;20051;-91
2023/08/09 00:06:57;;;;;;;3.47;2.58;;;;;;;;;;4917912;29;20064;-91
2023/08/09 00:09:27;;;;;;;3.08;2.78;;;;;;;;;;4916140;29;20060;-90
2023/08/09 00:11:54;;;;;;;4.15;2.63;;;;;;;;;;4910111;29;20063;-91
2023/08/09 00:14:22;;;;;;;7.40;4.45;;;;;;;;;;4927946;29;20059;-90
2023/08/09 00:16:50;;;;;;;17.42;4.85;;;;;;;;;;4916495;29;20058;-91
2023/08/09 00:19:18;;;;;;;3.63;2.97;;;;;;;;;;4922050;29;20507;-91
2023/08/09 00:21:46;;;;;;;4.32;2.78;;;;;;;;;;4916321;29;20522;-90
2023/08/09 00:24:16;;;;;;;2.83;2.28;;;;;;;;;;4924292;29;20036;-91
2023/08/09 00:26:43;;;;;;;5.50;2.55;;;;;;;;;;4931668;29;20059;-91
2023/08/09 00:29:15;;;;;;;3.20;2.90;;;;;;;;;;4931478;29;20063;-91
2023/08/09 00:31:45;;;;;;;6.10;2.35;;;;;;;;;;4913481;29;20430;-91
2023/08/09 00:34:16;;;;;;;4.28;2.95;;;;;;;;;;4917618;29;20121;-91
2023/08/09 00:36:43;;;;;;;5.13;2.92;;;;;;;;;;4914765;29;20048;-90
2023/08/09 00:39:13;;;;;;;6.28;2.58;;;;;;;;;;4908371;29;20043;-91
2023/08/09 00:41:43;;;;;;;4.15;2.78;;;;;;;;;;4915671;29;20055;-91
2023/08/09 00:44:12;;;;;;;4.72;2.53;;;;;;;;;;4916405;29;20048;-91
2023/08/09 00:46:42;;;;;;;3.55;2.70;;;;;;;;;;4906897;29;20651;-91
2023/08/09 00:49:09;;;;;;;4.90;2.97;;;;;;;;;;4914842;29;20060;-91
2023/08/09 00:51:41;;;;;;;3.38;2.95;;;;;;;;;;4902018;29;20416;-92
2023/08/09 00:54:11;;;;;;;4.15;2.92;;;;;;;;;;4914222;29;20056;-91
2023/08/09 00:56:41;;;;;;;4.93;3.63;;;;;;;;;;4907976;29;20048;-91
2023/08/09 00:59:12;;;;;;;4.97;3.08;;;;;;;;;;4914172;29;20071;-91
2023/08/09 01:01:39;;;;;;;5.22;3.17;;;;;;;;;;4916115;29;20750;-92
2023/08/09 01:04:09;;;;;;;4.88;3.85;;;;;;;;;;4900611;29;20055;-92
2023/08/09 01:06:47;;;;;;;3.13;2.83;;;;;;;;;;4897556;29;20687;-91
2023/08/09 01:09:21;;;;;;;3.17;2.83;;;;;;;;;;4896699;29;20063;-91
2023/08/09 01:11:50;;;;;;;4.82;3.20;;;;;;;;;;4923265;29;20048;-91
2023/08/09 01:14:22;;;;;;;3.72;3.35;;;;;;;;;;4917300;29;20058;-91
2023/08/09 01:16:50;;;;;;;6.55;3.38;;;;;;;;;;4921651;29;20054;-92
2023/08/09 01:19:38;;;;;;;8.10;3.85;;;;;;;;;;4920893;29;20047;-93
2023/08/09 01:22:08;;;;;;;7.88;3.85;;;;;;;;;;4931903;29;20051;-92
2023/08/09 01:24:37;;;;;;;6.47;3.67;;;;;;;;;;4904044;29;20054;-91
2023/08/09 01:27:05;;;;;;;6.13;3.92;;;;;;;;;;4906767;29;20046;-90
2023/08/09 01:29:33;;;;;;;4.53;3.33;;;;;;;;;;4901824;29;20683;-92
2023/08/09 01:32:03;;;;;;;7.03;3.60;;;;;;;;;;4926550;29;20082;-92
2023/08/09 01:34:31;;;;;;;3.92;3.35;;;;;;;;;;4895096;29;20070;-92
2023/08/09 01:37:10;;;;;;;3.92;3.53;;;;;;;;;;4927998;29;20044;-91
2023/08/09 01:39:39;;;;;;;3.80;3.20;;;;;;;;;;4899896;29;20066;-92
2023/08/09 01:42:08;;;;;;;4.00;3.40;;;;;;;;;;4919042;29;20047;-92
2023/08/09 01:44:39;;;;;;;4.93;2.92;;;;;;;;;;4911639;29;20050;-91
2023/08/09 01:47:11;;;;;;;4.22;3.58;;;;;;;;;;4915150;29;20055;-91
2023/08/09 01:49:45;;;;;;;7.70;3.10;;;;;;;;;;4912635;29;20047;-92
2023/08/09 01:52:12;;;;;;;5.70;4.00;;;;;;;;;;4900273;29;20055;-92
2023/08/09 01:54:41;;;;;;;3.45;3.00;;;;;;;;;;4922388;29;20050;-91
2023/08/09 01:57:11;;;;;;;7.97;5.07;;;;;;;;;;4898687;29;20058;-91
2023/08/09 01:59:38;;;;;;;4.25;3.03;;;;;;;;;;4913727;29;20518;-91
2023/08/09 02:02:06;;;;;;;5.10;3.55;;;;;;;;;;4919443;29;20450;-90
2023/08/09 02:04:35;;;;;;;4.70;3.60;;;;;;;;;;4902959;29;20055;-91
2023/08/09 02:07:03;;;;;;;5.72;3.53;;;;;;;;;;4914081;29;20062;-90
2023/08/09 02:09:32;;;;;;;4.10;3.70;;;;;;;;;;4901908;29;20051;-90
2023/08/09 02:12:01;;;;;;;6.00;3.88;;;;;;;;;;4923557;29;20067;-90
2023/08/09 02:14:29;;;;;;;4.43;3.33;;;;;;;;;;4918712;29;20051;-91
2023/08/09 02:17:00;;;;;;;3.78;3.28;;;;;;;;;;4904067;29;20048;-91
2023/08/09 02:19:30;;;;;;;4.65;2.53;;;;;;;;;;4924788;29;20043;-91
2023/08/09 02:21:58;;;;;;;5.55;3.17;;;;;;;;;;4909379;29;20063;-91
2023/08/09 02:24:26;;;;;;;3.53;2.95;;;;;;;;;;4924605;29;20052;-90
2023/08/09 02:26:53;;;;;;;3.63;2.83;;;;;;;;;;4932331;29;20430;-90
2023/08/09 02:29:24;;;;;;;3.55;2.78;;;;;;;;;;4928777;29;20048;-91
2023/08/09 02:31:51;;;;;;;4.57;3.22;;;;;;;;;;4918423;29;20054;-91
2023/08/09 02:34:19;;;;;;;3.28;2.80;;;;;;;;;;4914608;29;20051;-90
2023/08/09 02:36:51;;;;;;;2.95;2.53;;;;;;;;;;4902158;29;20431;-90
2023/08/09 02:39:19;;;;;;;5.40;3.45;;;;;;;;;;4912237;29;20052;-90
2023/08/09 02:41:49;;;;;;;4.82;3.47;;;;;;;;;;4906346;29;20051;-90
2023/08/09 02:44:16;;;;;;;4.43;3.55;;;;;;;;;;4894824;29;20507;-90
2023/08/09 02:46:47;;;;;;;3.65;2.75;;;;;;;;;;4898775;29;20051;-90
2023/08/09 02:49:15;;;;;;;6.68;2.65;;;;;;;;;;4913603;29;20051;-91
2023/08/09 02:51:42;;;;;;;3.50;3.20;;;;;;;;;;4897903;29;20094;-91
2023/08/09 02:54:12;;;;;;;4.97;3.25;;;;;;;;;;4915865;29;20060;-91
2023/08/09 02:56:39;;;;;;;6.18;3.20;;;;;;;;;;4918387;29;20526;-91
2023/08/09 02:59:06;;;;;;;6.05;3.75;;;;;;;;;;4898366;29;20051;-91
2023/08/09 03:01:34;;;;;;;4.05;3.20;;;;;;;;;;4921183;29;20523;-92
2023/08/09 03:04:05;;;;;;;3.70;2.78;;;;;;;;;;4909496;29;20075;-91
2023/08/09 03:06:32;;;;;;;4.88;2.97;;;;;;;;;;4905139;29;20075;-91
2023/08/09 03:08:59;;;;;;;5.07;2.90;;;;;;;;;;4913136;29;20428;-92
2023/08/09 03:11:26;;;;;;;4.32;2.75;;;;;;;;;;4902997;29;20051;-92
2023/08/09 03:13:55;;;;;;;5.63;3.10;;;;;;;;;;4911598;29;20055;-92
2023/08/09 03:16:23;;;;;;;4.50;2.60;;;;;;;;;;4905416;29;20043;-92
2023/08/09 03:18:51;;;;;;;3.85;3.28;;;;;;;;;;4914717;29;20055;-91
2023/08/09 03:21:23;;;;;;;4.28;3.05;;;;;;;;;;4906427;29;20052;-91
2023/08/09 03:23:53;;;;;;;3.47;2.60;;;;;;;;;;4932917;29;20044;-91
2023/08/09 03:26:20;;;;;;;3.05;1.90;;;;;;;;;;4915580;29;20051;-91
2023/08/09 03:28:49;;;;;;;3.55;2.47;;;;;;;;;;4920308;29;20044;-92
2023/08/09 03:31:17;;;;;;;5.85;3.08;;;;;;;;;;4918291;29;20058;-91
2023/08/09 03:33:46;;;;;;;4.82;3.50;;;;;;;;;;4919109;29;20060;-91
2023/08/09 03:36:14;;;;;;;4.35;2.78;;;;;;;;;;4914153;29;20071;-91
2023/08/09 03:38:43;;;;;;;3.25;2.30;;;;;;;;;;4912812;29;20529;-91
2023/08/09 03:41:10;;;;;;;5.43;2.42;;;;;;;;;;4905417;29;20056;-92
2023/08/09 03:43:38;;;;;;;7.47;2.95;;;;;;;;;;4915082;29;20044;-91
2023/08/09 03:46:06;;;;;;;3.67;2.88;;;;;;;;;;4937282;29;20075;-89
2023/08/09 03:48:34;;;;;;;2.85;2.53;;;;;;;;;;4937631;29;20499;-90
2023/08/09 03:51:01;;;;;;;3.30;2.58;;;;;;;;;;4884355;29;20056;-91
2023/08/09 03:53:29;;;;;;;4.32;2.70;;;;;;;;;;4919566;29;20549;-91
2023/08/09 03:56:00;;;;;;;3.00;2.60;;;;;;;;;;4921465;29;20499;-91
2023/08/09 03:58:28;;;;;;;5.45;2.50;;;;;;;;;;4898948;29;20056;-91
2023/08/09 04:00:55;;;;;;;3.85;3.20;;;;;;;;;;4919304;29;20058;-90
2023/08/09 04:03:26;;;;;;;4.60;2.67;;;;;;;;;;4930382;29;20866;-91
2023/08/09 04:05:53;;;;;;;3.92;2.50;;;;;;;;;;4915174;29;20062;-90
2023/08/09 04:08:21;;;;;;;4.60;2.63;;;;;;;;;;4906721;29;20063;-91
2023/08/09 04:10:49;;;;;;;4.75;2.97;;;;;;;;;;4934313;29;20044;-91
2023/08/09 04:13:17;;;;;;;2.42;1.95;;;;;;;;;;4916425;29;20082;-91
2023/08/09 04:15:47;;;;;;;2.92;2.30;;;;;;;;;;4917559;29;20044;-92
2023/08/09 04:18:17;;;;;;;3.13;1.98;;;;;;;;;;4916268;29;20067;-91
2023/08/09 04:20:46;;;;;;;2.42;2.03;;;;;;;;;;4888497;29;20063;-91
2023/08/09 04:23:13;;;;;;;2.72;2.05;;;;;;;;;;4915775;29;20519;-91
2023/08/09 04:25:41;;;;;;;3.28;1.98;;;;;;;;;;4926214;29;20044;-91
2023/08/09 04:28:13;;;;;;;2.72;1.60;;;;;;;;;;4900066;29;20409;-92
2023/08/09 04:30:46;;;;;;;5.75;2.58;;;;;;;;;;4944634;29;20054;-91
2023/08/09 04:33:13;;;;;;;4.18;2.60;;;;;;;;;;4911543;29;20051;-91
2023/08/09 04:35:43;;;;;;;3.42;2.63;;;;;;;;;;4918780;29;20055;-91
2023/08/09 04:38:11;;;;;;;4.28;2.50;;;;;;;;;;4934696;29;20048;-91
2023/08/09 04:40:38;;;;;;;4.20;2.53;;;;;;;;;;4943639;29;20035;-90
2023/08/09 04:43:08;;;;;;;7.05;2.83;;;;;;;;;;4938678;29;20044;-91
2023/08/09 04:45:36;;;;;;;3.60;2.63;;;;;;;;;;4918662;29;20043;-91
2023/08/09 04:48:07;;;;;;;3.53;2.30;;;;;;;;;;4933179;29;20056;-91
2023/08/09 04:50:35;;;;;;;3.33;2.38;;;;;;;;;;4934305;29;20054;-91
2023/08/09 04:53:02;;;;;;;3.05;1.92;;;;;;;;;;4935282;29;20611;-91
2023/08/09 04:55:30;;;;;;;2.75;1.95;;;;;;;;;;4921022;29;20067;-93
2023/08/09 04:57:57;;;;;;;2.25;1.95;;;;;;;;;;4914673;29;20044;-92
2023/08/09 05:00:29;;;;;;;6.63;2.80;;;;;;;;;;4919183;29;20048;-91
2023/08/09 05:02:56;;;;;;;6.43;2.15;;;;;;;;;;4912091;29;20059;-91
2023/08/09 05:05:25;;;;;;;2.65;1.95;;;;;;;;;;4919605;29;20048;-91
2023/08/09 05:07:52;;;;;;;2.50;2.10;;;;;;;;;;4921420;29;20047;-90
2023/08/09 05:10:22;;;;;;;3.47;1.80;;;;;;;;;;4927937;29;20059;-91
2023/08/09 05:12:49;;;;;;;2.75;2.10;;;;;;;;;;4923658;29;20063;-91
2023/08/09 05:15:17;;;;;;;3.30;2.65;;;;;;;;;;4915717;29;20052;-91
2023/08/09 05:17:44;;;;;;;6.93;2.95;;;;;;;;;;4933956;29;20448;-91
2023/08/09 05:20:12;;;;;;;3.00;2.22;;;;;;;;;;4933972;29;20052;-91
2023/08/09 05:22:44;;;;;;;3.88;3.05;;;;;;;;;;4929699;29;20043;-91
2023/08/09 05:25:11;;;;;;;3.88;3.17;;;;;;;;;;4923185;29;20063;-91
2023/08/09 05:27:39;;;;;;;3.50;2.40;;;;;;;;;;4925202;29;20051;-91
2023/08/09 05:30:09;;;;;;;3.78;2.92;;;;;;;;;;4927436;29;20048;-91
2023/08/09 05:32:37;;;;;;;4.50;2.60;;;;;;;;;;4916104;29;20067;-91
2023/08/09 05:35:05;;;;;;;3.17;2.72;;;;;;;;;;4925920;29;20059;-91
2023/08/09 05:37:32;;;;;;;2.85;2.38;;;;;;;;;;4916669;29;20055;-91
2023/08/09 05:40:04;;;;;;;3.20;2.58;;;;;;;;;;4918297;29;20048;-91
2023/08/09 05:42:33;;;;;;;2.72;2.30;;;;;;;;;;4914907;29;20066;-91
2023/08/09 05:45:01;;;;;;;2.88;2.53;;;;;;;;;;4915516;29;20063;-91
2023/08/09 05:47:28;;;;;;;3.45;2.30;;;;;;;;;;4921215;29;20059;-92
2023/08/09 05:49:55;;;;;;;3.55;2.45;;;;;;;;;;4932654;29;20051;-91
2023/08/09 05:52:26;;;;;;;2.90;2.60;;;;;;;;;;4902380;29;20059;-90
2023/08/09 05:54:53;;;;;;;3.55;2.40;;;;;;;;;;4901596;29;20525;-91
2023/08/09 05:57:22;;;;;;;3.33;2.65;;;;;;;;;;4932834;29;20036;-91
2023/08/09 05:59:49;;;;;;;2.40;2.17;;;;;;;;;;4914741;29;20047;-91
2023/08/09 06:02:17;;;;;;;2.35;2.10;;;;;;;;;;4912794;29;20497;-92
2023/08/09 06:04:44;;;;;;;4.97;2.40;;;;;;;;;;4928563;29;20055;-91
2023/08/09 06:07:14;;;;;;;3.42;1.90;;;;;;;;;;4916942;29;20047;-93
2023/08/09 06:09:42;;;;;;;6.78;2.28;;;;;;;;;;4910478;29;20071;-91
2023/08/09 06:12:12;;;;;;;2.63;2.20;;;;;;;;;;4929348;29;20071;-90
2023/08/09 06:14:41;;;;;;;2.65;2.13;;;;;;;;;;4931461;29;20074;-91
2023/08/09 06:17:08;;;;;;;3.85;2.80;;;;;;;;;;4918672;29;20059;-91
2023/08/09 06:19:38;;;;;;;2.75;2.15;;;;;;;;;;4912426;29;20055;-91
2023/08/09 06:22:06;;;;;;;2.90;2.05;;;;;;;;;;4912704;29;20059;-91
2023/08/09 06:24:33;;;;;;;7.68;3.03;;;;;;;;;;4915395;29;20046;-90
2023/08/09 06:27:00;;;;;;;3.72;2.10;;;;;;;;;;4927813;29;20055;-91
2023/08/09 06:29:28;;;;;;;2.17;1.98;;;;;;;;;;4932872;29;20058;-91
2023/08/09 06:31:57;;;;;;;2.45;2.20;;;;;;;;;;4923117;29;20702;-91
2023/08/09 06:34:24;;;;;;;2.85;2.35;;;;;;;;;;4931092;29;20043;-91
2023/08/09 06:36:52;;;;;;;2.95;2.50;;;;;;;;;;4924607;29;20435;-91
2023/08/09 06:39:21;;;;;;;6.18;2.88;;;;;;;;;;4931772;29;20426;-91
2023/08/09 06:41:49;;;;;;;3.85;2.53;;;;;;;;;;4924296;29;20062;-90
2023/08/09 06:44:17;;;;;;;9.02;2.42;;;;;;;;;;4929079;29;20055;-91
2023/08/09 06:46:44;;;;;;;3.33;2.47;;;;;;;;;;4910580;29;20058;-91
2023/08/09 06:49:13;;;;;;;6.07;2.78;;;;;;;;;;4900650;29;20050;-91
2023/08/09 06:51:41;;;;;;;5.68;2.88;;;;;;;;;;4917100;29;20533;-90
2023/08/09 06:54:08;;;;;;;4.32;2.30;;;;;;;;;;4932479;29;20551;-90
2023/08/09 06:56:38;;;;;;;5.88;2.25;;;;;;;;;;4931236;29;20043;-91
2023/08/09 06:59:05;;;;;;;3.63;2.80;;;;;;;;;;4914394;29;20050;-91
2023/08/09 07:01:33;;;;;;;5.93;3.28;;;;;;;;;;4931578;29;20059;-92
2023/08/09 07:04:02;;;;;;;5.07;2.63;;;;;;;;;;4931411;29;20051;-91
2023/08/09 07:06:34;;;;;;;3.80;2.13;;;;;;;;;;4898712;29;20066;-91
2023/08/09 07:09:05;;;;;;;3.25;2.15;;;;;;;;;;4919301;29;20043;-91
2023/08/09 07:11:32;;;;;;;3.67;2.53;;;;;;;;;;4932061;29;20056;-91
2023/08/09 07:13:59;;;;;;;2.38;1.95;;;;;;;;;;4928241;29;20055;-91
2023/08/09 07:16:27;;;;;;;2.85;2.28;;;;;;;;;;4910871;29;20051;-91
2023/08/09 07:18:54;;;;;;;4.88;2.30;;;;;;;;;;4909240;29;20044;-91
2023/08/09 07:21:24;;;;;;;3.35;2.15;;;;;;;;;;4909890;29;20048;-91
2023/08/09 07:23:53;;;;;;;2.47;2.17;;;;;;;;;;4915938;29;20063;-91
2023/08/09 07:26:20;;;;;;;6.68;3.28;;;;;;;;;;4920319;29;20052;-91
2023/08/09 07:28:48;;;;;;;4.53;1.80;;;;;;;;;;4904497;29;20434;-91
2023/08/09 07:31:20;;;;;;;5.93;3.22;;;;;;;;;;4931527;29;20412;-90
2023/08/09 07:33:47;;;;;;;6.38;2.53;;;;;;;;;;4935639;29;20071;-90
2023/08/09 07:36:19;;;;;;;5.70;3.38;;;;;;;;;;4923508;29;20047;-90
2023/08/09 07:38:49;;;;;;;5.15;2.63;;;;;;;;;;4931203;29;20044;-91
2023/08/09 07:41:17;;;;;;;3.05;2.25;;;;;;;;;;4904150;29;20058;-90
2023/08/09 07:43:49;;;;;;;6.70;2.95;;;;;;;;;;4928969;29;20052;-91
2023/08/09 07:46:16;;;;;;;3.35;2.85;;;;;;;;;;4915046;29;20055;-91
2023/08/09 07:48:44;;;;;;;4.00;2.78;;;;;;;;;;4909257;29;20040;-92
2023/08/09 07:51:14;;;;;;;4.07;2.92;;;;;;;;;;4915235;29;20054;-91
2023/08/09 07:53:42;;;;;;;3.33;2.40;;;;;;;;;;4912683;29;20531;-91
2023/08/09 07:56:09;;;;;;;4.38;2.55;;;;;;;;;;4933193;29;20052;-92
2023/08/09 07:58:40;;;;;;;3.33;2.83;;;;;;;;;;4913820;29;20047;-91
2023/08/09 08:01:08;;;;;;;5.70;3.28;;;;;;;;;;4936666;29;20063;-92
2023/08/09 08:03:35;;;;;;;10.20;2.42;;;;;;;;;;4929685;29;20059;-92
2023/08/09 08:06:02;;;;;;;4.43;2.20;;;;;;;;;;4901526;29;20047;-91
2023/08/09 08:08:31;;;;;;;5.05;2.80;;;;;;;;;;4931469;29;20056;-93
2023/08/09 08:11:01;;;;;;;2.78;2.47;;;;;;;;;;4897225;29;20075;-92
2023/08/09 08:13:28;;;;;;;6.55;3.10;;;;;;;;;;4922456;29;20051;-92
2023/08/09 08:16:02;;;;;;;3.72;2.65;;;;;;;;;;4908932;29;20055;-92
2023/08/09 08:18:31;;;;;;;5.88;3.10;;;;;;;;;;4922599;29;20055;-92
2023/08/09 08:20:59;;;;;;;3.65;2.20;;;;;;;;;;4937661;29;20527;-92
2023/08/09 08:23:27;;;;;;;4.10;2.10;;;;;;;;;;4939412;29;20047;-91
2023/08/09 08:25:57;;;;;;;3.70;2.53;;;;;;;;;;4921317;29;20070;-92
2023/08/09 08:28:26;;;;;;;3.42;2.17;;;;;;;;;;4922640;29;20052;-92
2023/08/09 08:30:55;;;;;;;3.10;2.80;;;;;;;;;;4923405;29;20052;-91
2023/08/09 08:33:27;;;;;;;3.85;2.08;;;;;;;;;;4918975;29;20063;-92
2023/08/09 08:35:56;;;;;;;7.57;3.58;;;;;;;;;;4930413;29;20156;-92
2023/08/09 08:38:28;;;;;;;4.65;2.38;;;;;;;;;;4902940;29;20052;-90
2023/08/09 08:40:56;;;;;;;4.82;2.50;;;;;;;;;;4923110;29;20064;-92
2023/08/09 08:43:24;;;;;;;5.80;2.20;;;;;;;;;;4919828;29;20074;-92
2023/08/09 08:45:51;;;;;;;2.72;2.30;;;;;;;;;;4932329;29;20056;-92
2023/08/09 08:48:21;;;;;;;3.30;2.20;;;;;;;;;;4918293;29;20435;-92
2023/08/09 08:50:51;;;;;;;3.33;2.30;;;;;;;;;;4904527;29;20048;-93
2023/08/09 08:53:19;;;;;;;6.03;3.30;;;;;;;;;;4917597;29;20066;-92
2023/08/09 08:55:47;;;;;;;3.92;2.38;;;;;;;;;;4931586;29;20060;-92
2023/08/09 08:58:16;;;;;;;5.50;2.08;;;;;;;;;;4903512;29;20132;-92
2023/08/09 09:01:11;;;;;;;3.78;2.58;;;;;;;;;;4919896;29;20044;-92
2023/08/09 09:03:41;;;;;;;3.10;1.95;;;;;;;;;;4914584;29;20070;-93
2023/08/09 09:06:10;;;;;;;13.98;3.15;;;;;;;;;;4934156;29;20051;-93
2023/08/09 09:08:41;;;;;;;3.75;2.50;;;;;;;;;;4917674;29;20047;-92
2023/08/09 09:11:21;;;;;;;5.07;2.15;;;;;;;;;;4921003;29;20051;-92
2023/08/09 09:13:50;;;;;;;6.00;2.53;;;;;;;;;;4899653;29;20064;-91
2023/08/09 09:16:19;;;;;;;4.20;2.17;;;;;;;;;;4912112;29;20626;-92
2023/08/09 09:18:50;;;;;;;4.60;2.25;;;;;;;;;;4934568;29;20055;-92
2023/08/09 09:21:19;;;;;;;2.20;1.95;;;;;;;;;;4904502;29;20052;-91
2023/08/09 09:23:47;;;;;;;3.92;2.13;;;;;;;;;;4916618;29;20050;-92
2023/08/09 09:26:17;;;;;;;3.05;1.75;;;;;;;;;;4903357;29;20063;-92
2023/08/09 09:28:48;;;;;;;2.50;2.30;;;;;;;;;;4905856;29;20043;-91
2023/08/09 09:31:18;;;;;;;5.00;2.00;;;;;;;;;;4926810;29;20415;-93
2023/08/09 09:33:50;;;;;;;3.65;2.42;;;;;;;;;;4923328;29;20051;-92
2023/08/09 09:36:21;;;;;;;2.40;1.65;;;;;;;;;;4926212;29;20050;-91
2023/08/09 09:38:52;;;;;;;3.72;2.03;;;;;;;;;;4924121;29;20574;-92
2023/08/09 09:41:20;;;;;;;3.97;1.80;;;;;;;;;;4914691;29;20063;-91
2023/08/09 09:43:50;;;;;;;5.85;2.35;;;;;;;;;;4898107;29;20052;-92
2023/08/09 09:46:19;;;;;;;2.67;1.92;;;;;;;;;;4930732;29;20063;-92
2023/08/09 09:48:51;;;;;;;2.95;1.70;;;;;;;;;;4914362;29;20051;-93
2023/08/09 09:51:19;;;;;;;4.57;2.35;;;;;;;;;;4900128;29;20596;-92
2023/08/09 09:58:03;;;;;;;1.58;1.35;;;;;;;;;;4929686;29;20032;-92
2023/08/09 10:00:33;;;;;;;4.72;2.17;;;;;;;;;;4918644;29;20055;-92
2023/08/09 10:03:01;;;;;;;5.32;1.65;;;;;;;;;;4900921;29;20060;-92
2023/08/09 10:08:58;;;;;;;2.00;1.60;;;;;;;;;;4932646;29;20039;-92
2023/08/09 10:11:28;;;;;;;9.13;1.90;;;;;;;;;;4915984;29;20552;-91
2023/08/09 10:14:02;;;;;;;2.17;1.85;;;;;;;;;;4914092;29;20058;-92
2023/08/09 10:16:30;;;;;;;2.43;1.87;;;;;;;;;;4924606;29;20031;-92
2023/08/09 10:19:00;;;;;;;5.35;1.83;;;;;;;;;;4925318;29;20038;-89
2023/08/09 10:21:30;;;;;;;2.50;2.30;;;;;;;;;;4926702;29;20696;-93
2023/08/09 10:24:05;;;;;;;3.28;2.13;;;;;;;;;;4901246;29;20503;-93
2023/08/09 10:26:39;;;;;;;3.22;2.65;;;;;;;;;;4923707;29;20066;-91
2023/08/09 10:29:10;;;;;;;2.22;2.03;;;;;;;;;;4919003;29;20111;-92
2023/08/09 10:31:52;;;;;;;4.22;3.08;;;;;;;;;;4909747;29;20071;-92
2023/08/09 10:34:21;;;;;;;4.72;2.72;;;;;;;;;;4902022;29;20055;-92
2023/08/09 10:36:53;;;;;;;1.70;1.60;;;;;;;;;;4924266;29;20050;-93
2023/08/09 10:39:21;;;;;;;1.90;1.60;;;;;;;;;;4921106;29;20052;-92
2023/08/09 10:42:05;;;;;;;1.60;1.50;;;;;;;;;;4931705;29;20040;-94
2023/08/09 10:44:41;;;;;;;2.40;2.10;;;;;;;;;;4933313;29;20607;-91
2023/08/09 10:47:13;;;;;;;3.92;2.10;;;;;;;;;;4929300;29;20052;-92
2023/08/09 10:49:56;;;;;;;3.38;2.13;;;;;;;;;;4906346;29;20043;-91
2023/08/09 10:52:31;;;;;;;3.33;2.00;;;;;;;;;;4919914;29;20048;-92
2023/08/09 10:55:26;;;;;;;2.00;1.67;;;;;;;;;;4916198;29;20566;-91
2023/08/09 10:57:54;;;;;;;1.85;1.65;;;;;;;;;;4909416;29;20067;-92
2023/08/09 11:00:25;;;;;;;3.75;1.95;;;;;;;;;;4930618;29;20040;-93
2023/08/09 11:02:53;;;;;;;2.38;2.17;;;;;;;;;;4918239;29;20054;-93
2023/08/09 11:05:24;;;;;;;2.58;1.92;;;;;;;;;;4932522;29;20696;-92
2023/08/09 11:07:53;;;;;;;2.35;2.00;;;;;;;;;;4932455;29;20051;-92
2023/08/09 11:10:39;;;;;;;3.33;2.30;;;;;;;;;;4918172;29;20047;-92
2023/08/09 11:13:08;;;;;;;5.82;2.17;;;;;;;;;;4928721;29;20047;-92
2023/08/09 11:15:38;;;;;;;4.57;2.35;;;;;;;;;;4924777;29;20404;-93
2023/08/09 11:18:08;;;;;;;3.15;2.05;;;;;;;;;;4904898;29;20048;-92
2023/08/09 11:20:35;;;;;;;2.38;2.17;;;;;;;;;;4903850;29;20059;-92
2023/08/09 11:23:04;;;;;;;2.17;1.95;;;;;;;;;;4931848;29;20059;-91
2023/08/09 11:25:33;;;;;;;3.40;2.35;;;;;;;;;;4915205;29;20052;-92
2023/08/09 11:28:01;;;;;;;5.40;2.60;;;;;;;;;;4932436;29;20051;-91
2023/08/09 11:30:31;;;;;;;2.75;2.45;;;;;;;;;;4930802;29;20039;-92
2023/08/09 11:33:03;;;;;;;2.80;2.38;;;;;;;;;;4927975;29;20538;-92
2023/08/09 11:35:39;;;;;;;1.88;1.60;;;;;;;;;;4906589;29;20055;-93
2023/08/09 11:38:09;;;;;;;3.83;1.85;;;;;;;;;;4904820;29;20060;-92
2023/08/09 11:40:44;;;;;;;2.22;2.03;;;;;;;;;;4921064;29;20048;-92
2023/08/09 11:43:13;;;;;;;2.53;1.98;;;;;;;;;;4919145;29;20044;-91
2023/08/09 11:45:49;;;;;;;3.20;2.05;;;;;;;;;;4936636;29;20044;-92
2023/08/09 11:48:32;;;;;;;2.75;1.85;;;;;;;;;;4934692;29;20058;-92
2023/08/09 11:51:02;;;;;;;2.67;2.47;;;;;;;;;;4935038;29;20055;-91
2023/08/09 11:53:30;;;;;;;2.80;1.90;;;;;;;;;;4917544;29;20076;-92
2023/08/09 11:56:01;;;;;;;2.95;2.42;;;;;;;;;;4919806;29;20055;-92
2023/08/09 11:58:34;;;;;;;1.98;1.75;;;;;;;;;;4936658;29;20055;-92
2023/08/09 12:01:12;;;;;;;2.80;1.63;;;;;;;;;;4920792;29;20060;-93
2023/08/09 12:03:41;;;;;;;2.70;1.73;;;;;;;;;;4910934;29;20503;-92
2023/08/09 12:06:11;;;;;;;2.33;1.60;;;;;;;;;;4930744;29;20052;-91
2023/08/09 12:08:39;;;;;;;2.60;1.50;;;;;;;;;;4936945;29;20048;-92
2023/08/09 12:11:06;;;;;;;1.55;1.45;;;;;;;;;;4916238;29;20541;-92
2023/08/09 12:13:34;;;;;;;2.75;2.13;;;;;;;;;;4922455;29;20054;-91
2023/08/09 12:16:06;;;;;;;5.50;1.63;;;;;;;;;;4929779;29;20059;-92
2023/08/09 12:18:36;;;;;;;1.70;1.58;;;;;;;;;;4905505;29;20052;-92
2023/08/09 12:21:07;;;;;;;3.03;1.63;;;;;;;;;;4959478;29;20047;-91
2023/08/09 12:23:42;;;;;;;2.95;1.65;;;;;;;;;;4903521;29;20059;-92
2023/08/09 12:26:14;;;;;;;2.00;1.73;;;;;;;;;;4916888;29;20048;-92
2023/08/09 12:28:42;;;;;;;1.88;1.38;;;;;;;;;;4918057;29;20547;-93
2023/08/09 12:31:12;;;;;;;1.70;1.48;;;;;;;;;;4917111;29;20047;-92
2023/08/09 12:33:54;;;;;;;;;;;;;;;;;;;;;
2023/08/09 12:36:26;;;;;;;1.38;1.05;;;;;;;;;;4912838;29;20067;-93
2023/08/09 12:38:59;;;;;;;2.25;1.73;;;;;;;;;;4921703;29;20051;-92
2023/08/09 12:41:31;;;;;;;1.98;1.45;;;;;;;;;;4932069;29;20048;-91
2023/08/09 12:44:09;;;;;;;2.20;1.80;;;;;;;;;;4900291;29;20058;-91
2023/08/09 12:46:37;;;;;;;1.52;1.42;;;;;;;;;;4921094;29;20144;-92
2023/08/09 12:49:14;;;;;;;4.07;1.90;;;;;;;;;;4935573;29;20052;-93
2023/08/09 12:51:50;;;;;;;2.55;1.58;;;;;;;;;;4934584;29;20051;-92
2023/08/09 12:54:20;;;;;;;2.42;1.52;;;;;;;;;;4916327;29;20055;-91
2023/08/09 12:56:58;;;;;;;2.63;2.20;;;;;;;;;;4934825;29;20044;-92
2023/08/09 12:59:28;;;;;;;1.75;1.65;;;;;;;;;;4924419;29;20422;-91
2023/08/09 13:02:09;;;;;;;;;;;;;;;;;;;;;
2023/08/09 13:04:40;;;;;;;3.60;1.63;;;;;;;;;;4925416;29;20059;-92
2023/08/09 13:07:09;;;;;;;2.50;2.17;;;;;;;;;;4919010;29;20056;-91
2023/08/09 13:09:39;;;;;;;2.27;2.00;;;;;;;;;;4932597;29;20044;-92
2023/08/09 13:12:08;;;;;;;3.72;2.22;;;;;;;;;;4916043;29;20040;-92
2023/08/09 13:14:36;;;;;;;2.67;2.15;;;;;;;;;;4903191;29;20050;-91
2023/08/09 13:17:06;;;;;;;1.90;1.52;;;;;;;;;;4917494;29;20063;-91
2023/08/09 13:19:37;;;;;;;2.45;2.13;;;;;;;;;;4944022;29;20047;-91
2023/08/09 13:22:10;;;;;;;2.22;2.05;;;;;;;;;;4954714;29;20055;-92
2023/08/09 13:24:37;;;;;;;3.15;1.95;;;;;;;;;;4902453;29;20054;-92
2023/08/09 13:27:07;;;;;;;1.70;1.60;;;;;;;;;;4914559;29;20055;-91
2023/08/09 13:29:35;;;;;;;1.65;1.55;;;;;;;;;;4922558;29;20051;-91
2023/08/09 13:32:05;;;;;;;3.45;1.60;;;;;;;;;;4904318;29;20048;-91
2023/08/09 13:34:35;;;;;;;2.00;1.90;;;;;;;;;;4934630;29;20062;-91
2023/08/09 13:37:03;;;;;;;2.72;2.17;;;;;;;;;;4933860;29;20042;-91
2023/08/09 13:39:31;;;;;;;1.80;1.63;;;;;;;;;;4916613;29;20047;-92
2023/08/09 13:42:01;;;;;;;2.78;2.58;;;;;;;;;;4933189;29;20043;-91
2023/08/09 13:44:31;;;;;;;2.45;1.77;;;;;;;;;;4928181;29;20056;-91
2023/08/09 13:47:00;;;;;;;3.15;1.95;;;;;;;;;;4902035;29;20062;-92
2023/08/09 13:49:28;;;;;;;1.88;1.42;;;;;;;;;;4932743;29;20054;-91
2023/08/09 13:51:55;;;;;;;3.13;1.77;;;;;;;;;;4916534;29;20561;-91
2023/08/09 13:54:23;;;;;;;2.72;1.80;;;;;;;;;;4917171;29;20054;-92
2023/08/09 13:56:51;;;;;;;2.33;1.70;;;;;;;;;;4933799;29;20040;-92
2023/08/09 13:59:19;;;;;;;1.55;1.30;;;;;;;;;;4934390;29;20039;-93
2023/08/09 14:01:49;;;;;;;1.77;1.42;;;;;;;;;;4920831;29;20048;-92
2023/08/09 14:04:19;;;;;;;1.20;1.10;;;;;;;;;;4931215;29;20047;-91
2023/08/09 14:06:47;;;;;;;1.60;1.48;;;;;;;;;;4916853;29;20082;-91
2023/08/09 14:09:14;;;;;;;1.50;1.20;;;;;;;;;;4918330;29;21900;-92
2023/08/09 14:11:44;;;;;;;2.80;1.60;;;;;;;;;;4932905;29;20724;-91
2023/08/09 14:14:13;;;;;;;2.35;2.15;;;;;;;;;;4935685;29;20062;-91
2023/08/09 14:16:40;;;;;;;2.60;2.40;;;;;;;;;;4920006;29;20051;-91
2023/08/09 14:19:09;;;;;;;2.22;1.70;;;;;;;;;;4915690;29;20059;-92
2023/08/09 14:21:37;;;;;;;3.20;2.00;;;;;;;;;;4917690;29;20043;-91
2023/08/09 14:24:05;;;;;;;2.67;1.90;;;;;;;;;;4910378;29;20066;-93
2023/08/09 14:26:33;;;;;;;4.57;1.85;;;;;;;;;;4919640;29;20059;-92
2023/08/09 14:29:06;;;;;;;3.08;2.00;;;;;;;;;;4930465;29;20044;-91
2023/08/09 14:31:37;;;;;;;;;;;;;;;;;;4901758;29;20422;-92
2023/08/09 14:34:04;;;;;;;3.45;1.67;;;;;;;;;;4899152;29;19930;-92
2023/08/09 14:36:35;;;;;;;1.70;1.55;;;;;;;;;;4928613;29;20043;-94
2023/08/09 14:39:03;;;;;;;1.73;1.48;;;;;;;;;;4937976;29;20052;-91
2023/08/09 14:41:34;;;;;;;3.92;1.50;;;;;;;;;;4918381;29;20039;-92
2023/08/09 14:44:01;;;;;;;2.40;2.17;;;;;;;;;;4920361;29;20542;-92
2023/08/09 14:46:28;;;;;;;1.88;1.60;;;;;;;;;;4935772;29;20043;-93
2023/08/09 14:48:57;;;;;;;2.78;1.60;;;;;;;;;;4912895;29;20063;-91
2023/08/09 14:51:25;;;;;;;2.00;1.70;;;;;;;;;;4915993;29;20063;-92
2023/08/09 14:53:52;;;;;;;1.45;1.35;;;;;;;;;;4922365;29;20048;-93
2023/08/09 14:56:22;;;;;;;1.48;1.15;;;;;;;;;;4922640;29;20051;-92
2023/08/09 14:58:53;;;;;;;1.48;1.30;;;;;;;;;;4917510;29;20674;-92
2023/08/09 15:01:21;;;;;;;5.15;1.33;;;;;;;;;;4933938;29;20059;-91
2023/08/09 15:03:49;;;;;;;1.45;1.08;;;;;;;;;;4927644;29;20055;-92
2023/08/09 15:06:18;;;;;;;1.30;1.10;;;;;;;;;;4925398;29;20059;-91
2023/08/09 15:08:45;;;;;;;1.95;1.25;;;;;;;;;;4907888;29;20059;-91